Time;durP1;ratioP1;P1;durP2;ratioP2;P2;SDS_P1;SDS_P2;PMS_P1;PMS_P2;Temp;Humidity;BMP_temperature;BMP_pressure;BME280_temperature;BME280_humidity;BME280_pressure;Samples;Min_cycle;Max_cycle;Signal;HPM_P1;HPM_P2
2021/08/21 00:01:52;;;;;;;;;;;34.70;22.30;;;;;;4374090;32;19999;-39
2021/08/21 00:04:18;;;;;;;;;;;34.70;22.30;;;;;;4373570;32;19995;-38
2021/08/21 00:06:44;;;;;;;;;;;34.70;22.30;;;;;;4373498;32;19973;-38
2021/08/21 00:09:11;;;;;;;;;;;34.60;22.30;;;;;;4373798;32;20034;-38
2021/08/21 00:11:37;;;;;;;;;;;34.60;22.40;;;;;;4373754;32;19956;-38
2021/08/21 00:14:04;;;;;;;;;;;34.50;22.30;;;;;;4359885;32;20023;-38
2021/08/21 00:16:31;;;;;;;;;;;34.50;22.30;;;;;;4374061;32;19957;-38
2021/08/21 00:18:58;;;;;;;;;;;34.40;22.30;;;;;;4373984;32;19968;-40
2021/08/21 00:21:24;;;;;;;;;;;34.30;22.30;;;;;;4374036;32;20495;-38
2021/08/21 00:23:50;;;;;;;;;;;34.30;22.20;;;;;;4373426;32;20020;-39
2021/08/21 00:26:17;;;;;;;;;;;34.30;22.20;;;;;;4373801;32;19968;-43
2021/08/21 00:28:43;;;;;;;;;;;34.20;22.10;;;;;;4341136;33;20057;-37
2021/08/21 00:31:09;;;;;;;;;;;34.20;22.10;;;;;;4337335;33;20407;-38
2021/08/21 00:33:35;;;;;;;;;;;34.20;22.10;;;;;;4326605;33;19986;-39
2021/08/21 00:36:01;;;;;;;;;;;34.20;22.00;;;;;;4314797;33;20408;-38
2021/08/21 00:38:28;;;;;;;;;;;34.20;22.00;;;;;;4326592;33;20005;-38
2021/08/21 00:40:54;;;;;;;;;;;34.20;22.00;;;;;;4326311;33;19998;-38
2021/08/21 00:43:20;;;;;;;;;;;34.20;22.00;;;;;;4326428;33;19962;-38
2021/08/21 00:45:47;;;;;;;;;;;34.20;22.00;;;;;;4326203;33;20030;-38
2021/08/21 00:48:13;;;;;;;;;;;34.20;22.00;;;;;;4326589;33;19974;-38
2021/08/21 00:50:39;;;;;;;;;;;34.20;22.00;;;;;;4326768;33;19969;-38
2021/08/21 00:53:05;;;;;;;;;;;34.20;22.00;;;;;;4326566;33;19981;-38
2021/08/21 00:55:31;;;;;;;;;;;34.30;22.00;;;;;;4326356;33;19970;-38
2021/08/21 00:57:58;;;;;;;;;;;34.30;22.00;;;;;;4326604;33;19966;-38
2021/08/21 01:00:24;;;;;;;;;;;34.30;22.00;;;;;;4314542;33;19970;-39
2021/08/21 01:02:50;;;;;;;;;;;34.40;22.00;;;;;;4326612;33;19977;-38
2021/08/21 01:05:16;;;;;;;;;;;34.40;21.90;;;;;;4330550;32;20727;-37
2021/08/21 01:07:45;;;;;;;;;;;34.40;21.90;;;;;;4358208;32;20046;-38
2021/08/21 01:10:14;;;;;;;;;;;34.40;21.90;;;;;;4358416;32;19972;-38
2021/08/21 01:12:41;;;;;;;;;;;34.40;22.00;;;;;;4358665;32;20011;-38
2021/08/21 01:15:07;;;;;;;;;;;34.40;22.00;;;;;;4358432;32;19981;-38
2021/08/21 01:17:34;;;;;;;;;;;34.40;22.00;;;;;;4358441;32;19961;-38
2021/08/21 01:20:01;;;;;;;;;;;34.40;22.10;;;;;;4358193;32;20029;-39
2021/08/21 01:22:27;;;;;;;;;;;34.40;22.10;;;;;;4358094;32;19997;-39
2021/08/21 01:24:57;;;;;;;;;;;34.30;22.10;;;;;;4344470;32;20004;-39
2021/08/21 01:27:28;;;;;;;;;;;34.20;22.20;;;;;;4358327;32;20123;-39
2021/08/21 01:29:54;;;;;;;;;;;34.20;22.20;;;;;;4358059;32;19954;-39
2021/08/21 01:32:21;;;;;;;;;;;34.20;22.20;;;;;;4358202;32;19954;-38
2021/08/21 01:34:47;;;;;;;;;;;34.10;22.30;;;;;;4357993;32;20399;-38
2021/08/21 01:37:20;;;;;;;;;;;34.10;22.40;;;;;;4344671;32;19993;-38
2021/08/21 01:39:47;;;;;;;;;;;34.00;22.50;;;;;;4357835;32;20458;-39
2021/08/21 01:42:13;;;;;;;;;;;33.90;22.60;;;;;;4358460;32;19978;-39
2021/08/21 01:44:41;;;;;;;;;;;33.90;22.70;;;;;;4343921;32;19962;-38
2021/08/21 01:47:11;;;;;;;;;;;33.80;22.80;;;;;;4344771;32;20375;-38
2021/08/21 01:50:04;;;;;;;;;;;33.80;22.80;;;;;;4358762;32;20067;-39
2021/08/21 01:52:31;;;;;;;;;;;33.80;23.00;;;;;;4356741;32;19989;-38
2021/08/21 01:54:57;;;;;;;;;;;33.70;23.00;;;;;;4358046;32;20402;-38
2021/08/21 01:57:23;;;;;;;;;;;33.70;23.00;;;;;;4358261;32;20068;-38
2021/08/21 01:59:50;;;;;;;;;;;33.70;23.00;;;;;;4359846;32;19969;-39
2021/08/21 02:02:17;;;;;;;;;;;33.70;23.00;;;;;;4360834;32;19982;-39
2021/08/21 02:04:43;;;;;;;;;;;33.70;23.00;;;;;;4342943;33;19981;-40
2021/08/21 02:07:10;;;;;;;;;;;33.70;23.10;;;;;;4342951;33;20401;-39
2021/08/21 02:09:36;;;;;;;;;;;33.60;23.00;;;;;;4318809;33;19964;-39
2021/08/21 02:12:04;;;;;;;;;;;33.60;23.20;;;;;;4343177;33;20399;-39
2021/08/21 02:14:30;;;;;;;;;;;33.60;23.40;;;;;;4342934;33;20064;-37
2021/08/21 02:17:01;;;;;;;;;;;33.60;23.50;;;;;;4342968;33;19955;-38
2021/08/21 02:19:27;;;;;;;;;;;33.60;23.60;;;;;;4331391;33;19954;-39
2021/08/21 02:21:54;;;;;;;;;;;33.60;23.70;;;;;;4343050;33;20583;-38
2021/08/21 02:24:24;;;;;;;;;;;33.60;23.70;;;;;;4343273;33;19970;-38
2021/08/21 02:26:58;;;;;;;;;;;33.70;23.70;;;;;;4343380;33;19973;-38
2021/08/21 02:29:25;;;;;;;;;;;33.60;23.80;;;;;;4342976;33;20051;-38
2021/08/21 02:31:51;;;;;;;;;;;33.60;24.00;;;;;;4351079;32;19964;-38
2021/08/21 02:34:17;;;;;;;;;;;33.50;24.00;;;;;;4357916;32;19973;-37
2021/08/21 02:36:43;;;;;;;;;;;33.50;24.10;;;;;;4357955;32;19977;-39
2021/08/21 02:39:10;;;;;;;;;;;33.60;24.10;;;;;;4358228;32;20005;-38
2021/08/21 02:41:36;;;;;;;;;;;33.70;24.10;;;;;;4354542;32;20063;-38
2021/08/21 02:44:03;;;;;;;;;;;33.90;24.10;;;;;;4345582;32;19958;-38
2021/08/21 02:46:29;;;;;;;;;;;34.10;24.00;;;;;;4345255;32;20456;-38
2021/08/21 02:48:55;;;;;;;;;;;34.40;23.90;;;;;;4345192;32;19954;-38
2021/08/21 02:51:21;;;;;;;;;;;34.70;23.80;;;;;;4345333;32;20437;-38
2021/08/21 02:53:47;;;;;;;;;;;35.10;23.70;;;;;;4345121;32;19987;-38
2021/08/21 02:56:13;;;;;;;;;;;35.50;23.60;;;;;;4345136;32;20065;-38
2021/08/21 02:58:39;;;;;;;;;;;35.80;23.50;;;;;;4345386;32;19950;-38
2021/08/21 03:01:05;;;;;;;;;;;36.20;23.30;;;;;;4344980;33;19973;-38
2021/08/21 03:03:32;;;;;;;;;;;36.60;23.30;;;;;;4345009;32;20039;-38
2021/08/21 03:05:58;;;;;;;;;;;36.90;23.10;;;;;;4344320;32;19981;-38
2021/08/21 03:08:24;;;;;;;;;;;37.20;22.90;;;;;;4344886;32;19969;-38
2021/08/21 03:10:50;;;;;;;;;;;37.50;22.90;;;;;;4344677;32;20422;-38
2021/08/21 03:13:16;;;;;;;;;;;37.80;22.80;;;;;;4344906;32;19982;-39
2021/08/21 03:15:42;;;;;;;;;;;38.10;22.60;;;;;;4345082;32;20395;-39
2021/08/21 03:18:09;;;;;;;;;;;38.40;22.60;;;;;;4356878;32;19958;-38
2021/08/21 03:20:35;;;;;;;;;;;38.70;22.50;;;;;;4359642;32;20035;-40
2021/08/21 03:23:02;;;;;;;;;;;39.10;22.20;;;;;;4359583;32;19981;-39
2021/08/21 03:25:28;;;;;;;;;;;39.50;22.00;;;;;;4359236;32;19977;-39
2021/08/21 03:27:54;;;;;;;;;;;39.90;21.50;;;;;;4359589;32;20537;-38
2021/08/21 03:30:20;;;;;;;;;;;40.30;21.20;;;;;;4345721;32;20047;-38
2021/08/21 03:32:46;;;;;;;;;;;40.70;20.90;;;;;;4359174;32;19950;-38
2021/08/21 03:35:13;;;;;;;;;;;41.00;20.80;;;;;;4359591;32;19977;-37
2021/08/21 03:37:39;;;;;;;;;;;41.30;20.60;;;;;;4359746;32;19962;-38
2021/08/21 03:40:05;;;;;;;;;;;41.60;20.40;;;;;;4359074;32;19981;-39
2021/08/21 03:42:32;;;;;;;;;;;42.00;20.50;;;;;;4358847;32;19969;-39
2021/08/21 03:44:58;;;;;;;;;;;42.20;20.40;;;;;;4359402;32;19977;-38
2021/08/21 03:47:24;;;;;;;;;;;42.50;20.20;;;;;;4359296;32;19977;-38
2021/08/21 03:49:50;;;;;;;;;;;42.80;20.10;;;;;;4359088;32;19969;-39
2021/08/21 03:52:16;;;;;;;;;;;43.00;19.90;;;;;;4358964;32;19970;-39
2021/08/21 03:54:43;;;;;;;;;;;43.30;19.90;;;;;;4359334;32;19958;-38
2021/08/21 03:57:09;;;;;;;;;;;43.50;19.70;;;;;;4359211;32;20018;-38
2021/08/21 03:59:35;;;;;;;;;;;43.70;19.50;;;;;;4358845;32;20066;-39
2021/08/21 04:02:01;;;;;;;;;;;43.90;19.40;;;;;;4358809;32;19961;-38
2021/08/21 04:04:27;;;;;;;;;;;44.10;19.30;;;;;;4359030;32;20047;-38
2021/08/21 04:06:54;;;;;;;;;;;44.30;19.20;;;;;;4358796;32;20056;-38
2021/08/21 04:09:20;;;;;;;;;;;44.50;19.10;;;;;;4358930;32;19970;-39
2021/08/21 04:11:46;;;;;;;;;;;44.60;19.10;;;;;;4358683;32;19962;-40
2021/08/21 04:14:12;;;;;;;;;;;44.70;19.00;;;;;;4359130;32;20370;-38
2021/08/21 04:16:38;;;;;;;;;;;44.90;19.10;;;;;;4358562;32;20351;-38
2021/08/21 04:19:05;;;;;;;;;;;45.00;19.10;;;;;;4358962;32;19993;-37
2021/08/21 04:21:35;;;;;;;;;;;45.10;19.10;;;;;;4358555;32;19991;-38
2021/08/21 04:24:01;;;;;;;;;;;45.20;19.10;;;;;;4345483;32;19965;-38
2021/08/21 04:26:27;;;;;;;;;;;45.20;19.00;;;;;;4358780;32;20043;-38
2021/08/21 04:28:54;;;;;;;;;;;45.20;19.00;;;;;;4358269;32;20005;-38
2021/08/21 04:31:20;;;;;;;;;;;45.30;19.10;;;;;;4344838;32;20115;-37
2021/08/21 04:33:46;;;;;;;;;;;45.30;19.10;;;;;;4358547;32;20513;-40
2021/08/21 04:36:12;;;;;;;;;;;45.40;19.10;;;;;;4358737;32;20001;-38
2021/08/21 04:38:38;;;;;;;;;;;45.50;19.00;;;;;;4311602;33;19984;-38
2021/08/21 04:41:04;;;;;;;;;;;45.60;18.90;;;;;;4311789;33;19971;-39
2021/08/21 04:43:31;;;;;;;;;;;45.70;18.70;;;;;;4296568;33;19975;-37
2021/08/21 04:45:57;;;;;;;;;;;45.80;18.70;;;;;;4297166;33;20063;-39
2021/08/21 04:48:23;;;;;;;;;;;45.90;18.70;;;;;;4296997;33;19959;-39
2021/08/21 04:50:49;;;;;;;;;;;46.00;18.70;;;;;;4297408;33;19993;-38
2021/08/21 04:53:15;;;;;;;;;;;46.00;18.50;;;;;;4297317;33;19971;-39
2021/08/21 04:55:41;;;;;;;;;;;46.10;18.50;;;;;;4297313;33;19959;-38
2021/08/21 04:58:08;;;;;;;;;;;46.20;18.50;;;;;;4285013;33;20390;-39
2021/08/21 05:00:34;;;;;;;;;;;46.20;18.50;;;;;;4297172;33;19967;-38
2021/08/21 05:03:00;;;;;;;;;;;46.30;18.40;;;;;;4297137;33;20130;-38
2021/08/21 05:05:26;;;;;;;;;;;46.30;18.40;;;;;;4296814;33;20029;-38
2021/08/21 05:07:53;;;;;;;;;;;46.30;18.40;;;;;;4297206;33;19973;-38
2021/08/21 05:10:19;;;;;;;;;;;46.30;18.40;;;;;;4319718;33;19970;-41
2021/08/21 05:12:45;;;;;;;;;;;46.30;18.50;;;;;;4326141;33;20444;-37
2021/08/21 05:15:12;;;;;;;;;;;46.20;18.60;;;;;;4350888;32;19954;-39
2021/08/21 05:17:38;;;;;;;;;;;46.00;18.80;;;;;;4350315;32;19983;-39
2021/08/21 05:25:11;;;;;;;;;;;45.50;19.30;;;;;;4358513;32;19986;-39
2021/08/21 05:27:37;;;;;;;;;;;45.40;19.20;;;;;;4358153;32;20436;-38
2021/08/21 05:30:04;;;;;;;;;;;45.40;19.20;;;;;;4358293;32;20402;-38
2021/08/21 05:32:31;;;;;;;;;;;45.30;19.40;;;;;;4358285;32;20057;-38
2021/08/21 05:34:57;;;;;;;;;;;45.30;19.50;;;;;;4360111;32;20398;-38
2021/08/21 05:37:23;;;;;;;;;;;45.40;19.70;;;;;;4360666;32;19954;-39
2021/08/21 05:39:49;;;;;;;;;;;45.40;19.50;;;;;;4361183;32;20390;-39
2021/08/21 05:42:16;;;;;;;;;;;45.40;19.40;;;;;;4361331;32;20444;-38
2021/08/21 05:44:42;;;;;;;;;;;45.50;19.40;;;;;;4359319;32;20013;-38
2021/08/21 05:47:08;;;;;;;;;;;45.50;19.20;;;;;;4360914;32;19960;-39
2021/08/21 05:49:34;;;;;;;;;;;45.70;19.20;;;;;;4360885;32;20462;-38
2021/08/21 05:52:00;;;;;;;;;;;45.70;19.10;;;;;;4360805;32;20366;-38
2021/08/21 05:54:27;;;;;;;;;;;45.90;19.00;;;;;;4361152;32;19993;-39
2021/08/21 05:56:55;;;;;;;;;;;46.00;19.00;;;;;;4360713;32;20408;-40
2021/08/21 05:59:21;;;;;;;;;;;46.10;18.80;;;;;;4361125;32;19984;-39
2021/08/21 06:01:47;;;;;;;;;;;46.30;18.60;;;;;;4360996;32;19961;-39
2021/08/21 06:04:13;;;;;;;;;;;46.40;18.40;;;;;;4360598;32;20030;-39
2021/08/21 06:06:40;;;;;;;;;;;46.60;18.60;;;;;;4360502;32;19953;-38
2021/08/21 06:09:06;;;;;;;;;;;46.70;18.70;;;;;;4360669;32;19989;-39
2021/08/21 06:11:32;;;;;;;;;;;46.80;18.60;;;;;;4346690;32;20393;-38
2021/08/21 06:13:59;;;;;;;;;;;47.00;18.70;;;;;;4360724;32;19961;-38
2021/08/21 06:16:25;;;;;;;;;;;47.20;18.70;;;;;;4360574;32;20068;-39
2021/08/21 06:18:51;;;;;;;;;;;47.30;18.70;;;;;;4360692;32;20045;-39
2021/08/21 06:21:17;;;;;;;;;;;47.50;18.60;;;;;;4360690;32;19954;-39
2021/08/21 06:23:43;;;;;;;;;;;47.60;18.50;;;;;;4360018;32;20503;-39
2021/08/21 06:26:10;;;;;;;;;;;47.80;18.60;;;;;;4360556;32;19996;-38
2021/08/21 06:28:36;;;;;;;;;;;47.80;18.50;;;;;;4360292;32;19962;-38
2021/08/21 06:31:03;;;;;;;;;;;48.00;18.50;;;;;;4359978;32;19961;-39
2021/08/21 06:33:30;;;;;;;;;;;48.00;18.50;;;;;;4360581;32;19949;-39
2021/08/21 06:35:58;;;;;;;;;;;48.10;18.50;;;;;;4360318;32;20007;-39
2021/08/21 06:38:24;;;;;;;;;;;48.10;18.50;;;;;;4360669;32;19950;-39
2021/08/21 06:40:50;;;;;;;;;;;48.10;18.50;;;;;;4360353;32;19964;-39
2021/08/21 06:43:17;;;;;;;;;;;48.10;18.70;;;;;;4360015;32;19954;-39
2021/08/21 06:45:43;;;;;;;;;;;48.10;18.70;;;;;;4359752;32;19958;-39
2021/08/21 06:48:09;;;;;;;;;;;48.20;18.90;;;;;;4359861;32;19976;-38
2021/08/21 06:50:36;;;;;;;;;;;48.30;19.00;;;;;;4359864;32;19985;-38
2021/08/21 06:53:03;;;;;;;;;;;48.30;18.90;;;;;;4359871;32;20022;-38
2021/08/21 06:55:30;;;;;;;;;;;48.30;18.80;;;;;;4359938;32;19958;-39
2021/08/21 06:57:56;;;;;;;;;;;48.30;19.00;;;;;;4358669;32;19976;-38
2021/08/21 07:00:22;;;;;;;;;;;48.30;19.00;;;;;;4359814;32;19969;-38
2021/08/21 07:02:48;;;;;;;;;;;48.40;18.90;;;;;;4358381;32;20424;-38
2021/08/21 07:05:15;;;;;;;;;;;48.50;18.70;;;;;;4359776;32;20484;-39
2021/08/21 07:07:41;;;;;;;;;;;48.50;18.60;;;;;;4359985;32;19991;-38
2021/08/21 07:10:08;;;;;;;;;;;48.60;18.50;;;;;;4359736;32;20364;-38
2021/08/21 07:12:34;;;;;;;;;;;48.80;18.70;;;;;;4359863;32;20065;-38
2021/08/21 07:15:00;;;;;;;;;;;48.90;18.80;;;;;;4359909;32;19950;-38
2021/08/21 07:17:26;;;;;;;;;;;49.10;18.80;;;;;;4367062;32;19972;-43
2021/08/21 07:19:52;;;;;;;;;;;49.20;18.80;;;;;;4374577;32;19972;-39
2021/08/21 07:22:19;;;;;;;;;;;49.30;18.70;;;;;;4374517;32;19957;-38
2021/08/21 07:24:45;;;;;;;;;;;49.50;18.80;;;;;;4374355;32;19993;-38
2021/08/21 07:27:11;;;;;;;;;;;49.60;18.70;;;;;;4374379;32;20502;-38
2021/08/21 07:29:37;;;;;;;;;;;49.70;18.70;;;;;;4374323;32;20436;-39
2021/08/21 07:32:04;;;;;;;;;;;49.90;18.70;;;;;;4374522;32;20044;-38
2021/08/21 07:34:31;;;;;;;;;;;50.00;18.60;;;;;;4374296;32;19954;-39
2021/08/21 07:36:57;;;;;;;;;;;50.10;18.40;;;;;;4374754;32;19985;-38
2021/08/21 07:39:23;;;;;;;;;;;50.30;18.30;;;;;;4374730;32;20362;-39
2021/08/21 07:41:49;;;;;;;;;;;50.50;18.20;;;;;;4374033;32;20000;-38
2021/08/21 07:44:16;;;;;;;;;;;50.60;18.20;;;;;;4374127;32;20081;-38
2021/08/21 07:46:42;;;;;;;;;;;50.70;18.10;;;;;;4373988;32;19965;-39
2021/08/21 07:49:08;;;;;;;;;;;50.80;18.00;;;;;;4374200;32;20047;-38
2021/08/21 07:51:36;;;;;;;;;;;50.70;17.80;;;;;;4373887;32;19999;-39
2021/08/21 07:54:03;;;;;;;;;;;50.70;18.10;;;;;;4374096;32;19969;-38
2021/08/21 07:56:30;;;;;;;;;;;50.70;18.10;;;;;;4373544;32;20378;-39
2021/08/21 07:58:56;;;;;;;;;;;50.60;17.90;;;;;;4374072;32;19977;-38
2021/08/21 08:01:22;;;;;;;;;;;50.50;17.90;;;;;;4373932;32;20389;-38
2021/08/21 08:03:49;;;;;;;;;;;50.30;17.90;;;;;;4373467;32;19976;-38
2021/08/21 08:06:15;;;;;;;;;;;50.10;18.00;;;;;;4374201;32;19964;-37
2021/08/21 08:08:41;;;;;;;;;;;49.90;17.90;;;;;;4373876;32;19956;-39
2021/08/21 08:11:07;;;;;;;;;;;49.70;18.40;;;;;;4373701;32;20037;-38
2021/08/21 08:13:33;;;;;;;;;;;49.60;17.80;;;;;;4373587;32;19988;-40
2021/08/21 08:16:00;;;;;;;;;;;49.50;17.70;;;;;;4373862;32;19969;-38
2021/08/21 08:18:26;;;;;;;;;;;49.40;17.90;;;;;;4373649;32;20055;-39
2021/08/21 08:20:52;;;;;;;;;;;49.30;18.00;;;;;;4373542;32;19950;-38
2021/08/21 08:23:18;;;;;;;;;;;49.30;18.00;;;;;;4359752;32;19991;-38
2021/08/21 08:25:45;;;;;;;;;;;49.20;18.50;;;;;;4373831;32;19982;-41
2021/08/21 08:28:11;;;;;;;;;;;49.20;17.90;;;;;;4373469;32;19965;-39
2021/08/21 08:30:37;;;;;;;;;;;49.20;18.40;;;;;;4373118;32;19958;-39
2021/08/21 08:33:03;;;;;;;;;;;49.10;18.90;;;;;;4326312;33;19982;-39
2021/08/21 08:35:29;;;;;;;;;;;48.90;19.10;;;;;;4326369;33;19950;-38
2021/08/21 08:37:56;;;;;;;;;;;48.70;19.00;;;;;;4326639;33;20038;-39
2021/08/21 08:40:22;;;;;;;;;;;48.60;19.10;;;;;;4326108;33;19955;-38
2021/08/21 08:42:49;;;;;;;;;;;48.40;19.10;;;;;;4314326;33;19969;-38
2021/08/21 08:45:15;;;;;;;;;;;48.20;19.20;;;;;;4326362;33;19964;-39
2021/08/21 08:47:41;;;;;;;;;;;48.00;19.10;;;;;;4326394;33;19971;-39
2021/08/21 08:50:10;;;;;;;;;;;47.70;19.00;;;;;;4326468;33;19970;-39
2021/08/21 08:52:37;;;;;;;;;;;47.50;19.20;;;;;;4326324;33;20046;-39
2021/08/21 08:55:04;;;;;;;;;;;47.30;19.40;;;;;;4326487;33;19990;-39
2021/08/21 08:57:37;;;;;;;;;;;47.10;19.80;;;;;;4314314;33;19954;-39
2021/08/21 09:00:09;;;;;;;;;;;46.90;19.80;;;;;;4326788;33;19966;-39
2021/08/21 09:02:37;;;;;;;;;;;46.70;19.80;;;;;;4326549;33;20430;-39
2021/08/21 09:05:05;;;;;;;;;;;46.60;19.80;;;;;;4355212;32;20438;-39
2021/08/21 09:07:44;;;;;;;;;;;46.40;20.20;;;;;;4358388;32;19969;-39
2021/08/21 09:10:19;;;;;;;;;;;46.20;20.30;;;;;;4361212;32;19969;-40
2021/08/21 09:12:46;;;;;;;;;;;45.80;20.30;;;;;;4361417;32;19985;-40
2021/08/21 09:15:23;;;;;;;;;;;45.40;20.30;;;;;;4361473;32;20515;-38
2021/08/21 09:18:09;;;;;;;;;;;45.10;20.30;;;;;;4361357;32;20050;-40
2021/08/21 09:20:50;;;;;;;;;;;44.70;20.50;;;;;;4361305;32;19974;-40
2021/08/21 09:23:27;;;;;;;;;;;44.40;20.80;;;;;;4361211;32;19993;-38
2021/08/21 09:25:56;;;;;;;;;;;44.20;21.10;;;;;;4361033;32;20011;-39
2021/08/21 09:28:24;;;;;;;;;;;44.00;21.20;;;;;;4361371;32;19958;-39
2021/08/21 09:31:02;;;;;;;;;;;43.80;21.20;;;;;;4361146;32;20027;-39
2021/08/21 09:33:28;;;;;;;;;;;43.80;21.30;;;;;;4361169;32;19962;-40
2021/08/21 09:35:54;;;;;;;;;;;43.60;21.30;;;;;;4359747;32;20496;-40
2021/08/21 09:38:27;;;;;;;;;;;43.40;21.20;;;;;;4360911;32;20403;-38
2021/08/21 09:41:01;;;;;;;;;;;43.40;21.20;;;;;;4359158;32;19981;-40
2021/08/21 09:43:33;;;;;;;;;;;43.30;21.10;;;;;;4361105;32;19972;-41
2021/08/21 09:46:19;;;;;;;;;;;43.30;21.00;;;;;;4361350;32;20035;-39
2021/08/21 09:48:59;;;;;;;;;;;43.30;20.90;;;;;;4361131;32;19986;-40
2021/08/21 09:51:42;;;;;;;;;;;43.40;20.70;;;;;;4360937;32;20109;-40
2021/08/21 09:54:19;;;;;;;;;;;43.40;20.40;;;;;;4360596;32;20443;-39
2021/08/21 09:56:55;;;;;;;;;;;43.50;20.30;;;;;;4343178;32;20450;-38
2021/08/21 09:59:42;;;;;;;;;;;43.70;20.20;;;;;;4343747;32;19977;-39
2021/08/21 10:02:13;;;;;;;;;;;43.80;20.00;;;;;;4330958;33;19978;-38
2021/08/21 10:04:42;;;;;;;;;;;43.90;19.80;;;;;;4343339;32;20061;-39
2021/08/21 10:07:13;;;;;;;;;;;44.10;19.70;;;;;;4343246;32;20024;-39
2021/08/21 10:09:40;;;;;;;;;;;44.30;19.60;;;;;;4343181;32;20397;-39
2021/08/21 10:12:08;;;;;;;;;;;44.60;19.50;;;;;;4343492;33;19982;-39
2021/08/21 10:14:34;;;;;;;;;;;44.80;19.30;;;;;;4343880;32;19976;-39
2021/08/21 10:17:01;;;;;;;;;;;45.10;19.10;;;;;;4342687;32;19981;-39
2021/08/21 10:19:27;;;;;;;;;;;45.30;18.90;;;;;;4342944;32;20001;-39
2021/08/21 10:21:58;;;;;;;;;;;45.60;18.80;;;;;;4343312;32;19957;-39
2021/08/21 10:24:36;;;;;;;;;;;45.90;18.60;;;;;;4342669;32;20492;-39
2021/08/21 10:27:34;;;;;;;;;;;46.10;18.50;;;;;;4323127;32;19957;-38
2021/08/21 10:30:07;;;;;;;;;;;46.40;18.50;;;;;;4360297;32;19950;-39
2021/08/21 10:32:40;;;;;;;;;;;46.60;18.40;;;;;;4360458;32;19981;-39
2021/08/21 10:35:06;;;;;;;;;;;46.70;18.20;;;;;;4361090;32;19957;-40
2021/08/21 10:37:40;;;;;;;;;;;47.10;18.30;;;;;;4360400;32;20070;-38
2021/08/21 10:40:42;;;;;;;;;;;47.40;18.20;;;;;;4360705;32;20056;-40
2021/08/21 10:43:08;;;;;;;;;;;47.70;18.20;;;;;;4312903;33;20375;-40
2021/08/21 10:45:41;;;;;;;;;;;47.90;18.00;;;;;;4313509;33;20400;-39
2021/08/21 10:48:31;;;;;;;;;;;48.10;17.90;;;;;;4313499;33;20009;-40
2021/08/21 10:50:57;;;;;;;;;;;48.30;17.90;;;;;;4280736;33;19987;-39
2021/08/21 10:53:27;;;;;;;;;;;48.40;18.10;;;;;;4284558;33;19976;-38
2021/08/21 10:55:53;;;;;;;;;;;48.40;18.30;;;;;;4284160;33;20070;-38
2021/08/21 10:58:21;;;;;;;;;;;48.40;18.40;;;;;;4284462;33;20095;-38
2021/08/21 11:00:54;;;;;;;;;;;48.30;18.70;;;;;;4284133;33;19963;-39
2021/08/21 11:03:23;;;;;;;;;;;48.10;18.90;;;;;;4284032;33;19963;-38
2021/08/21 11:05:56;;;;;;;;;;;47.90;19.00;;;;;;4283988;33;20423;-38
2021/08/21 11:08:26;;;;;;;;;;;47.70;18.90;;;;;;4283769;33;20479;-38
2021/08/21 11:11:12;;;;;;;;;;;47.50;18.90;;;;;;4284065;33;20094;-38
2021/08/21 11:14:05;;;;;;;;;;;47.50;19.00;;;;;;4283875;33;19955;-39
2021/08/21 11:16:56;;;;;;;;;;;47.40;18.90;;;;;;4290825;33;19959;-38
2021/08/21 11:19:25;;;;;;;;;;;47.40;18.70;;;;;;4312613;33;19970;-38
2021/08/21 11:22:10;;;;;;;;;;;47.40;18.60;;;;;;4333589;32;20434;-39
2021/08/21 11:24:38;;;;;;;;;;;47.50;18.50;;;;;;4359347;32;19974;-39
2021/08/21 11:27:23;;;;;;;;;;;47.70;18.40;;;;;;4359669;32;20045;-39
2021/08/21 11:30:11;;;;;;;;;;;47.90;18.20;;;;;;4359474;32;19966;-38
2021/08/21 11:32:42;;;;;;;;;;;48.20;18.10;;;;;;4358749;32;20522;-39
2021/08/21 11:35:08;;;;;;;;;;;48.50;18.00;;;;;;4359443;32;20394;-39
2021/08/21 11:37:34;;;;;;;;;;;48.60;17.60;;;;;;4357519;32;20040;-38
2021/08/21 11:40:00;;;;;;;;;;;48.60;17.50;;;;;;4359494;32;19977;-39
2021/08/21 11:42:49;;;;;;;;;;;48.70;17.50;;;;;;4359031;32;20509;-39
2021/08/21 11:45:16;;;;;;;;;;;48.70;17.50;;;;;;4359451;32;20045;-38
2021/08/21 11:47:42;;;;;;;;;;;48.80;17.40;;;;;;4359662;32;19961;-40
2021/08/21 11:50:42;;;;;;;;;;;49.00;17.40;;;;;;4359557;32;20412;-38
2021/08/21 11:53:09;;;;;;;;;;;49.20;17.60;;;;;;4327088;33;20038;-39
2021/08/21 11:55:36;;;;;;;;;;;49.30;17.70;;;;;;4326739;33;20462;-39
2021/08/21 11:58:04;;;;;;;;;;;49.30;17.90;;;;;;4326953;33;19978;-39
2021/08/21 12:00:31;;;;;;;;;;;49.10;18.00;;;;;;4326923;33;20030;-39
2021/08/21 12:03:05;;;;;;;;;;;48.90;17.90;;;;;;4314526;33;20053;-38
2021/08/21 12:05:41;;;;;;;;;;;48.70;18.00;;;;;;4303033;33;20048;-39
2021/08/21 12:08:13;;;;;;;;;;;48.40;18.00;;;;;;4326507;33;19966;-38
2021/08/21 12:10:44;;;;;;;;;;;48.10;18.00;;;;;;4326782;33;20381;-38
2021/08/21 12:13:10;;;;;;;;;;;47.70;18.40;;;;;;4326811;33;19978;-39
2021/08/21 12:15:36;;;;;;;;;;;47.50;17.90;;;;;;4314381;33;20129;-40
2021/08/21 12:18:03;;;;;;;;;;;47.30;17.90;;;;;;4326670;33;19969;-38
2021/08/21 12:20:29;;;;;;;;;;;47.00;17.70;;;;;;4314837;33;19977;-37
2021/08/21 12:22:55;;;;;;;;;;;46.80;17.80;;;;;;4326868;33;19978;-39
2021/08/21 12:25:21;;;;;;;;;;;46.50;17.80;;;;;;4314560;33;19973;-38
2021/08/21 12:27:47;;;;;;;;;;;46.30;17.90;;;;;;4330311;32;19962;-39
2021/08/21 12:30:17;;;;;;;;;;;46.30;18.10;;;;;;4358539;32;20575;-40
2021/08/21 12:32:44;;;;;;;;;;;46.20;18.00;;;;;;4333901;32;20463;-39
2021/08/21 12:35:16;;;;;;;;;;;46.20;18.00;;;;;;4358647;32;19954;-39
2021/08/21 12:37:44;;;;;;;;;;;46.10;18.00;;;;;;4358770;32;19965;-38
2021/08/21 12:40:15;;;;;;;;;;;46.10;18.20;;;;;;4344711;32;19954;-38
2021/08/21 12:42:42;;;;;;;;;;;45.90;18.30;;;;;;4344617;32;20488;-38
2021/08/21 12:45:21;;;;;;;;;;;45.70;19.00;;;;;;4358488;32;20402;-38
2021/08/21 12:47:48;;;;;;;;;;;45.50;18.60;;;;;;4358187;32;20506;-39
2021/08/21 12:50:14;;;;;;;;;;;45.20;18.70;;;;;;4358678;32;19982;-39
2021/08/21 12:52:44;;;;;;;;;;;45.00;18.80;;;;;;4344378;32;19985;-38
2021/08/21 12:55:11;;;;;;;;;;;44.80;19.30;;;;;;4344339;32;19978;-39
2021/08/21 12:57:38;;;;;;;;;;;44.60;19.50;;;;;;4358065;32;20412;-39
2021/08/21 13:00:16;;;;;;;;;;;44.40;19.90;;;;;;4358637;32;19965;-38
2021/08/21 13:02:47;;;;;;;;;;;44.20;20.30;;;;;;4359018;32;19977;-39
2021/08/21 13:05:21;;;;;;;;;;;44.00;20.80;;;;;;4358460;32;19981;-39
2021/08/21 13:07:48;;;;;;;;;;;43.90;21.10;;;;;;4358558;32;19969;-39
2021/08/21 13:10:19;;;;;;;;;;;43.70;21.30;;;;;;4358711;32;19962;-38
2021/08/21 13:12:46;;;;;;;;;;;43.60;21.50;;;;;;4358288;32;20017;-39
2021/08/21 13:15:13;;;;;;;;;;;43.40;21.60;;;;;;4358421;32;19973;-39
2021/08/21 13:17:39;;;;;;;;;;;43.30;21.60;;;;;;4358404;32;19954;-39
2021/08/21 13:20:06;;;;;;;;;;;43.20;21.30;;;;;;4358093;32;19969;-38
2021/08/21 13:22:33;;;;;;;;;;;43.00;21.10;;;;;;4357773;32;20366;-39
2021/08/21 13:24:59;;;;;;;;;;;42.90;21.10;;;;;;4357765;32;20441;-39
2021/08/21 13:27:25;;;;;;;;;;;42.90;21.10;;;;;;4357941;32;19999;-39
2021/08/21 13:29:52;;;;;;;;;;;42.80;21.10;;;;;;4358083;32;20001;-39
2021/08/21 13:32:18;;;;;;;;;;;42.80;21.00;;;;;;4358143;32;20032;-39
2021/08/21 13:34:45;;;;;;;;;;;42.80;21.00;;;;;;4358589;32;19969;-38
2021/08/21 13:37:11;;;;;;;;;;;42.90;20.90;;;;;;4357903;32;20042;-39
2021/08/21 13:39:37;;;;;;;;;;;42.90;20.70;;;;;;4358185;32;19966;-39
2021/08/21 13:42:04;;;;;;;;;;;43.00;20.70;;;;;;4357932;32;19969;-39
2021/08/21 13:44:30;;;;;;;;;;;43.10;20.50;;;;;;4356416;32;19977;-38
2021/08/21 13:46:56;;;;;;;;;;;43.10;20.30;;;;;;4356658;32;20420;-38
2021/08/21 13:49:22;;;;;;;;;;;43.10;20.10;;;;;;4358061;32;20347;-39
2021/08/21 13:51:48;;;;;;;;;;;43.20;20.00;;;;;;4357990;32;19973;-40
2021/08/21 13:54:15;;;;;;;;;;;43.30;20.00;;;;;;4358032;32;19988;-39
2021/08/21 13:56:41;;;;;;;;;;;43.30;20.00;;;;;;4360698;32;20049;-39
2021/08/21 13:59:07;;;;;;;;;;;43.30;20.00;;;;;;4359073;32;19989;-39
2021/08/21 14:01:33;;;;;;;;;;;43.30;20.00;;;;;;4360665;32;20034;-39
2021/08/21 14:04:00;;;;;;;;;;;43.30;20.10;;;;;;4360539;32;19981;-39
2021/08/21 14:06:26;;;;;;;;;;;43.30;20.30;;;;;;4360634;32;19976;-38
2021/08/21 14:08:53;;;;;;;;;;;43.20;20.30;;;;;;4360172;32;19977;-39
2021/08/21 14:11:20;;;;;;;;;;;43.20;20.40;;;;;;4359227;32;19978;-40
2021/08/21 14:13:46;;;;;;;;;;;43.20;20.40;;;;;;4360539;32;20421;-40
2021/08/21 14:16:12;;;;;;;;;;;43.20;20.50;;;;;;4360337;32;20041;-39
2021/08/21 14:18:38;;;;;;;;;;;43.20;20.60;;;;;;4374707;32;19965;-39
2021/08/21 14:21:06;;;;;;;;;;;43.20;20.60;;;;;;4375044;32;19988;-39
2021/08/21 14:23:33;;;;;;;;;;;43.20;20.70;;;;;;4361705;32;19953;-40
2021/08/21 14:25:59;;;;;;;;;;;43.00;20.70;;;;;;4375297;32;19965;-40
2021/08/21 14:28:25;;;;;;;;;;;43.00;20.80;;;;;;4375216;32;20054;-38